Time;durP1;ratioP1;P1;durP2;ratioP2;P2;SDS_P1;SDS_P2;PMS_P1;PMS_P2;Temp;Humidity;BMP_temperature;BMP_pressure;BME280_temperature;BME280_humidity;BME280_pressure;Samples;Min_cycle;Max_cycle;Signal;HPM_P1;HPM_P2
2022/11/05 00:10:28;;;;;;;6.68;1.60;;;10.60;99.90;;;;;;5102408;28;20035;-80
2022/11/05 00:18:25;;;;;;;1.92;1.13;;;10.60;99.90;;;;;;5102144;28;20085;-82
2022/11/05 00:20:50;;;;;;;1.98;1.30;;;10.60;99.90;;;;;;5090195;28;20453;-84
2022/11/05 00:26:10;;;;;;;3.22;1.40;;;10.60;99.90;;;;;;5109466;28;20031;-79
2022/11/05 00:28:36;;;;;;;3.72;1.50;;;10.60;99.90;;;;;;5115575;28;20488;-80
2022/11/05 00:31:10;;;;;;;4.18;1.60;;;10.60;99.90;;;;;;5082215;28;20047;-80
2022/11/05 00:33:40;;;;;;;2.28;1.65;;;10.60;99.90;;;;;;5081353;28;20016;-82
2022/11/05 00:36:07;;;;;;;4.82;1.50;;;10.60;99.90;;;;;;5089612;28;20027;-81
2022/11/05 00:38:33;;;;;;;3.22;1.77;;;10.60;99.90;;;;;;5089540;28;20048;-79
2022/11/05 00:40:59;;;;;;;3.10;1.50;;;10.60;99.90;;;;;;5082673;28;20028;-76
2022/11/05 00:46:09;;;;;;;2.92;1.83;;;10.70;99.90;;;;;;5103628;28;20031;-79
2022/11/05 00:51:20;;;;;;;6.15;3.28;;;10.70;99.90;;;;;;5113482;28;20380;-76
2022/11/05 00:53:45;;;;;;;3.53;2.22;;;10.70;99.90;;;;;;5093027;28;20241;-83
2022/11/05 00:56:11;;;;;;;6.20;2.65;;;10.70;99.90;;;;;;5098014;28;20426;-81
2022/11/05 00:58:36;;;;;;;4.65;2.78;;;10.70;99.90;;;;;;5090098;28;20039;-83
2022/11/05 01:01:03;;;;;;;4.90;2.55;;;10.70;99.90;;;;;;5097833;28;20035;-83
2022/11/05 01:03:34;;;;;;;4.28;2.20;;;10.70;99.90;;;;;;5080663;28;20035;-83
2022/11/05 01:06:15;;;;;;;6.95;2.45;;;10.70;99.90;;;;;;5090576;28;20028;-83
2022/11/05 01:08:43;;;;;;;4.25;2.75;;;10.70;99.90;;;;;;5107825;28;20031;-79
2022/11/05 01:11:35;;;;;;;5.10;2.85;;;10.70;99.90;;;;;;5080666;28;20111;-80
2022/11/05 01:14:04;;;;;;;5.03;2.88;;;10.70;99.90;;;;;;5090176;28;20024;-82
2022/11/05 01:16:31;;;;;;;5.00;2.63;;;10.70;99.90;;;;;;5087843;28;20028;-80
2022/11/05 01:18:57;;;;;;;5.53;3.75;;;10.70;99.90;;;;;;5082462;28;20039;-81
2022/11/05 01:21:22;;;;;;;7.10;3.60;;;10.70;99.90;;;;;;5111888;28;20031;-81
2022/11/05 01:23:48;;;;;;;6.47;3.15;;;10.70;99.90;;;;;;5082205;28;20022;-80
2022/11/05 01:26:14;;;;;;;6.28;3.55;;;10.70;99.90;;;;;;5090396;28;20111;-79
2022/11/05 01:28:39;;;;;;;4.78;3.40;;;10.70;99.90;;;;;;5083676;28;20028;-82
2022/11/05 01:31:05;;;;;;;5.82;3.70;;;10.70;99.90;;;;;;5093267;28;20069;-84
2022/11/05 01:33:30;;;;;;;5.72;3.30;;;10.80;99.90;;;;;;5092976;28;20027;-85
2022/11/05 01:35:57;;;;;;;6.72;3.33;;;10.80;99.90;;;;;;5083660;28;20134;-83
2022/11/05 01:38:23;;;;;;;5.82;4.10;;;10.80;99.90;;;;;;5086206;28;20115;-83
2022/11/05 01:40:48;;;;;;;8.25;4.10;;;10.80;99.90;;;;;;5092263;28;20036;-83
2022/11/05 01:43:19;;;;;;;7.50;4.00;;;10.70;99.90;;;;;;5096606;28;20384;-85
2022/11/05 01:45:50;;;;;;;7.38;3.92;;;10.80;99.90;;;;;;5081570;28;20550;-84
2022/11/05 01:48:31;;;;;;;7.75;4.45;;;10.80;99.90;;;;;;5105923;28;20449;-83
2022/11/05 01:51:05;;;;;;;7.07;4.18;;;10.80;99.90;;;;;;5092254;28;20483;-89
2022/11/05 01:53:48;;;;;;;6.53;4.35;;;10.70;99.90;;;;;;5113805;28;20103;-78
2022/11/05 01:56:20;;;;;;;9.30;4.60;;;10.70;99.90;;;;;;5113829;28;20015;-79
2022/11/05 01:58:54;;;;;;;7.28;4.45;;;10.70;99.90;;;;;;5113359;28;20030;-78
2022/11/05 02:01:20;;;;;;;7.38;4.78;;;10.80;99.90;;;;;;5114133;28;20487;-77
2022/11/05 02:03:49;;;;;;;9.18;4.53;;;10.70;99.90;;;;;;5095375;28;20023;-77
2022/11/05 02:06:16;;;;;;;9.23;4.78;;;10.70;99.90;;;;;;5114270;28;20027;-77
2022/11/05 02:08:54;;;;;;;7.63;5.10;;;10.70;99.90;;;;;;5095350;28;20024;-77
2022/11/05 02:11:20;;;;;;;7.93;4.80;;;10.70;99.90;;;;;;5095944;28;20540;-77
2022/11/05 02:13:46;;;;;;;10.48;5.65;;;10.70;99.90;;;;;;5095540;28;20058;-79
2022/11/05 02:16:12;;;;;;;8.43;4.88;;;10.80;99.90;;;;;;5096016;28;20047;-77
2022/11/05 02:19:04;;;;;;;9.23;5.07;;;10.80;99.90;;;;;;5108315;28;20108;-76
2022/11/05 02:21:47;;;;;;;9.30;5.20;;;10.80;99.90;;;;;;5074610;28;20040;-77
2022/11/05 02:24:32;;;;;;;8.60;4.75;;;10.90;99.90;;;;;;5076299;28;20028;-77
2022/11/05 02:27:22;;;;;;;8.07;5.30;;;10.90;99.90;;;;;;5088251;28;20119;-77
2022/11/05 02:30:07;;;;;;;7.40;5.00;;;10.90;99.90;;;;;;5095297;28;20380;-77
2022/11/05 02:32:54;;;;;;;12.40;5.28;;;10.90;99.90;;;;;;5095673;28;20483;-77
2022/11/05 02:35:47;;;;;;;7.55;4.47;;;10.90;99.90;;;;;;5096124;28;20055;-77
2022/11/05 02:38:31;;;;;;;9.77;5.00;;;10.90;99.90;;;;;;5096056;28;20032;-77
2022/11/05 02:41:09;;;;;;;10.43;5.20;;;10.90;99.90;;;;;;5114033;28;20038;-77
2022/11/05 02:43:53;;;;;;;6.90;4.25;;;10.90;99.90;;;;;;5095178;28;20114;-77
2022/11/05 02:46:53;;;;;;;7.80;4.70;;;10.90;99.90;;;;;;5095701;28;20027;-76
2022/11/05 02:49:34;;;;;;;7.90;4.55;;;10.90;99.90;;;;;;5113526;28;20368;-76
2022/11/05 02:52:13;;;;;;;6.28;4.10;;;10.80;99.90;;;;;;5095767;28;20055;-78
2022/11/05 02:54:53;;;;;;;7.03;4.00;;;10.70;99.90;;;;;;5095651;28;20027;-78
2022/11/05 02:57:21;;;;;;;9.02;4.32;;;10.60;99.90;;;;;;5095879;28;20028;-78
2022/11/05 02:59:46;;;;;;;7.85;4.40;;;10.70;99.90;;;;;;5095109;28;20092;-78
2022/11/05 03:02:12;;;;;;;6.13;4.07;;;10.70;99.90;;;;;;5095713;28;20024;-78
2022/11/05 03:04:38;;;;;;;8.93;4.18;;;10.70;99.90;;;;;;5094958;28;20380;-77
2022/11/05 03:07:10;;;;;;;10.30;4.45;;;10.70;99.90;;;;;;5095617;28;20027;-78
2022/11/05 03:09:50;;;;;;;8.27;3.92;;;10.70;99.90;;;;;;5095169;28;20118;-77
2022/11/05 03:12:42;;;;;;;8.35;4.35;;;10.70;99.90;;;;;;5113579;28;20114;-77
2022/11/05 03:15:46;;;;;;;10.55;4.07;;;10.70;99.90;;;;;;5095590;28;20027;-78
2022/11/05 03:18:38;;;;;;;7.03;3.92;;;10.70;99.90;;;;;;5045089;28;20499;-77
2022/11/05 03:21:34;;;;;;;7.93;3.92;;;10.70;99.90;;;;;;5095583;28;20089;-78
2022/11/05 03:24:12;;;;;;;7.00;3.85;;;10.70;99.90;;;;;;5113788;28;20023;-77
2022/11/05 03:26:48;;;;;;;6.75;4.20;;;10.70;99.90;;;;;;5095053;28;20030;-78
2022/11/05 03:29:32;;;;;;;7.18;4.65;;;10.70;99.90;;;;;;5113442;28;20145;-77
2022/11/05 03:32:01;;;;;;;11.25;4.90;;;10.80;99.90;;;;;;5095670;28;20020;-78
2022/11/05 03:34:32;;;;;;;8.90;4.45;;;10.70;99.90;;;;;;5095463;28;20030;-78
2022/11/05 03:37:01;;;;;;;9.18;4.72;;;10.80;99.90;;;;;;5095207;28;20027;-77
2022/11/05 03:39:36;;;;;;;8.60;4.00;;;10.80;99.90;;;;;;5095223;28;20039;-77
2022/11/05 03:42:06;;;;;;;9.93;4.85;;;10.80;99.90;;;;;;5095505;28;20020;-77
2022/11/05 03:44:37;;;;;;;7.47;3.95;;;10.80;99.90;;;;;;5095019;28;20027;-76
2022/11/05 03:47:06;;;;;;;9.05;4.18;;;10.80;99.90;;;;;;5113342;28;20526;-77
2022/11/05 03:49:40;;;;;;;5.35;3.75;;;10.70;99.90;;;;;;5095114;28;20024;-77
2022/11/05 03:52:16;;;;;;;7.00;3.95;;;10.70;99.90;;;;;;5094926;28;20499;-78
2022/11/05 03:54:41;;;;;;;7.25;3.50;;;10.70;99.90;;;;;;5094847;28;20055;-77
2022/11/05 03:57:24;;;;;;;9.02;4.38;;;10.70;99.90;;;;;;5116657;28;20079;-78
2022/11/05 03:59:50;;;;;;;12.73;5.35;;;10.70;99.90;;;;;;5098329;28;20028;-78
2022/11/05 04:02:18;;;;;;;13.00;6.28;;;10.70;99.90;;;;;;5099106;28;20055;-78
2022/11/05 04:04:44;;;;;;;4.40;3.22;;;10.70;99.90;;;;;;5116309;28;20023;-77
2022/11/05 04:15:22;;;;;;;5.68;2.83;;;10.80;99.90;;;;;;5116812;28;20030;-78
2022/11/05 04:17:48;;;;;;;7.53;3.20;;;10.80;99.90;;;;;;5097928;28;20122;-78
2022/11/05 04:25:47;;;;;;;6.10;2.65;;;10.80;99.90;;;;;;5116322;28;20030;-78
2022/11/05 04:28:13;;;;;;;6.35;2.72;;;10.70;99.90;;;;;;5098564;28;20024;-77
2022/11/05 04:30:39;;;;;;;5.63;2.50;;;10.70;99.90;;;;;;5097665;28;20044;-77
2022/11/05 04:33:10;;;;;;;5.70;3.08;;;10.80;99.90;;;;;;5116662;28;20024;-78
2022/11/05 04:35:45;;;;;;;6.50;2.72;;;10.70;99.90;;;;;;5097558;28;20108;-77
2022/11/05 04:38:14;;;;;;;4.35;2.63;;;10.70;99.90;;;;;;5116453;28;20085;-78
2022/11/05 04:40:40;;;;;;;9.63;3.15;;;10.60;99.90;;;;;;5115817;28;20057;-77
2022/11/05 04:43:06;;;;;;;8.90;2.65;;;10.60;99.90;;;;;;5098149;28;20019;-78
2022/11/05 04:45:33;;;;;;;4.82;2.97;;;10.60;99.90;;;;;;5098220;28;20049;-78
2022/11/05 04:48:00;;;;;;;4.43;2.70;;;10.60;99.90;;;;;;5097519;28;20576;-78
2022/11/05 04:50:26;;;;;;;4.25;2.65;;;10.60;99.90;;;;;;5115825;28;20077;-78
2022/11/05 04:52:51;;;;;;;7.07;2.38;;;10.50;99.90;;;;;;5115233;28;20415;-78
2022/11/05 04:55:18;;;;;;;3.95;2.40;;;10.50;99.90;;;;;;5098047;28;20031;-78
2022/11/05 04:57:48;;;;;;;6.50;2.50;;;10.50;99.90;;;;;;5115497;28;20074;-77
2022/11/05 05:00:13;;;;;;;6.20;3.10;;;10.60;99.90;;;;;;5097601;28;20067;-78
2022/11/05 05:02:39;;;;;;;4.35;2.65;;;10.60;99.90;;;;;;5082294;28;20051;-76
2022/11/05 05:05:05;;;;;;;6.60;2.90;;;10.60;99.90;;;;;;5109653;28;20526;-78
2022/11/05 05:07:32;;;;;;;5.65;2.83;;;10.60;99.90;;;;;;5102234;28;20024;-77
2022/11/05 05:09:57;;;;;;;4.45;2.75;;;10.50;99.90;;;;;;5083935;28;20202;-77
2022/11/05 05:12:23;;;;;;;4.60;2.75;;;10.50;99.90;;;;;;5076584;28;20479;-77
2022/11/05 05:14:48;;;;;;;5.20;2.65;;;10.50;99.90;;;;;;5078549;28;20028;-77
2022/11/05 05:17:14;;;;;;;3.67;2.55;;;10.50;99.90;;;;;;5094999;28;20016;-77
2022/11/05 05:22:24;;;;;;;5.70;2.97;;;10.50;99.90;;;;;;5115180;28;20508;-77
2022/11/05 05:24:50;;;;;;;4.05;2.50;;;10.50;99.90;;;;;;5079103;28;20023;-77
2022/11/05 05:27:15;;;;;;;4.18;2.75;;;10.50;99.90;;;;;;5090175;28;20126;-78
2022/11/05 05:29:41;;;;;;;4.60;2.63;;;10.50;99.90;;;;;;5085841;28;20040;-77
2022/11/05 05:32:07;;;;;;;4.20;2.60;;;10.50;99.90;;;;;;5082708;28;20039;-78
2022/11/05 05:34:32;;;;;;;6.88;2.78;;;10.50;99.90;;;;;;5112080;28;20030;-79
2022/11/05 05:36:58;;;;;;;3.40;2.33;;;10.50;99.90;;;;;;5110053;28;20020;-78
2022/11/05 05:39:23;;;;;;;4.72;2.58;;;10.50;99.90;;;;;;5084134;28;20118;-78
2022/11/05 05:41:49;;;;;;;5.53;2.60;;;10.50;99.90;;;;;;5095862;28;20039;-79
2022/11/05 05:44:15;;;;;;;4.85;2.60;;;10.50;99.90;;;;;;5081793;28;20059;-78
2022/11/05 05:46:40;;;;;;;3.75;2.30;;;10.50;99.90;;;;;;5075736;28;20032;-77
2022/11/05 05:49:08;;;;;;;4.80;2.60;;;10.40;99.90;;;;;;5081551;28;20107;-78
2022/11/05 05:51:34;;;;;;;4.03;2.55;;;10.40;99.90;;;;;;5087064;28;20035;-78
2022/11/05 05:54:00;;;;;;;3.90;2.50;;;10.40;99.90;;;;;;5075564;28;20271;-78
2022/11/05 05:56:25;;;;;;;4.80;2.35;;;10.40;99.90;;;;;;5092148;28;20028;-79
2022/11/05 05:58:51;;;;;;;3.58;2.33;;;10.40;99.90;;;;;;5078859;28;20453;-78
2022/11/05 06:01:17;;;;;;;4.70;2.60;;;10.40;99.90;;;;;;5092032;28;20059;-78
2022/11/05 06:03:43;;;;;;;4.75;2.80;;;10.40;99.90;;;;;;5095428;28;20031;-77
2022/11/05 06:06:11;;;;;;;6.10;2.50;;;10.40;99.90;;;;;;5114163;28;20027;-78
2022/11/05 06:08:38;;;;;;;4.65;2.38;;;10.40;99.90;;;;;;5079491;28;20035;-79
2022/11/05 06:11:04;;;;;;;4.60;2.33;;;10.40;99.90;;;;;;5109115;28;20020;-78
2022/11/05 06:13:30;;;;;;;4.82;2.40;;;10.30;99.90;;;;;;5084306;28;20110;-78
2022/11/05 06:16:00;;;;;;;2.85;1.90;;;10.30;99.90;;;;;;5082408;28;20189;-76
2022/11/05 06:18:26;;;;;;;3.67;1.92;;;10.30;99.90;;;;;;5091509;28;20362;-76
2022/11/05 06:20:52;;;;;;;3.20;2.20;;;10.40;99.90;;;;;;5077569;28;20023;-76
2022/11/05 06:23:17;;;;;;;5.07;2.42;;;10.40;99.90;;;;;;5095284;28;20114;-76
2022/11/05 06:25:43;;;;;;;4.45;2.70;;;10.40;99.90;;;;;;5101662;28;20031;-76
2022/11/05 06:28:08;;;;;;;5.35;2.00;;;10.40;99.90;;;;;;5088921;28;20019;-76
2022/11/05 06:30:34;;;;;;;4.85;2.60;;;10.40;99.90;;;;;;5089039;28;20052;-76
2022/11/05 06:33:04;;;;;;;4.60;2.60;;;10.30;99.90;;;;;;5094316;28;20024;-77
2022/11/05 06:35:30;;;;;;;4.20;2.50;;;10.30;99.90;;;;;;5094628;28;20036;-77
2022/11/05 06:38:01;;;;;;;4.75;2.80;;;10.30;99.90;;;;;;5100280;28;20047;-76
2022/11/05 06:40:27;;;;;;;4.80;2.55;;;10.30;99.90;;;;;;5095099;28;20032;-76
2022/11/05 06:42:53;;;;;;;5.43;2.50;;;10.30;99.90;;;;;;5095418;28;20076;-76
2022/11/05 06:45:20;;;;;;;7.72;3.17;;;10.20;99.90;;;;;;5105820;28;20434;-76
2022/11/05 06:47:45;;;;;;;4.93;2.42;;;10.30;99.90;;;;;;5093879;28;20077;-76
2022/11/05 06:50:11;;;;;;;3.00;1.88;;;10.30;99.90;;;;;;5095395;28;20028;-76
2022/11/05 06:52:36;;;;;;;3.42;1.92;;;10.30;99.90;;;;;;5093673;28;20024;-77
2022/11/05 06:55:03;;;;;;;3.30;1.92;;;10.30;99.90;;;;;;5090965;28;20346;-76
2022/11/05 06:57:28;;;;;;;4.35;1.80;;;10.30;99.90;;;;;;5094643;28;20490;-76
2022/11/05 06:59:54;;;;;;;3.08;1.60;;;10.30;99.90;;;;;;5100268;28;20043;-76
2022/11/05 07:02:19;;;;;;;3.17;2.05;;;10.20;99.90;;;;;;5094694;28;20464;-76
2022/11/05 07:04:45;;;;;;;3.53;2.10;;;10.30;99.90;;;;;;5091340;28;20365;-77
2022/11/05 07:07:10;;;;;;;3.25;2.00;;;10.40;99.90;;;;;;5094564;28;20109;-76
2022/11/05 07:09:41;;;;;;;7.70;3.17;;;10.40;99.90;;;;;;5103106;28;20028;-76
2022/11/05 07:12:08;;;;;;;11.50;5.90;;;10.40;99.90;;;;;;5094909;28;20034;-79
2022/11/05 07:14:34;;;;;;;8.68;4.88;;;10.50;99.90;;;;;;5091803;28;20078;-75
2022/11/05 07:16:59;;;;;;;5.15;3.15;;;10.40;99.90;;;;;;5090468;28;20017;-77
2022/11/05 07:19:25;;;;;;;5.25;2.47;;;10.40;99.90;;;;;;5091407;28;20117;-77
2022/11/05 07:21:51;;;;;;;5.40;2.30;;;10.40;99.90;;;;;;5094167;28;20564;-77
2022/11/05 07:24:16;;;;;;;5.47;2.13;;;10.30;99.90;;;;;;5091316;28;20032;-77
2022/11/05 07:26:42;;;;;;;3.72;2.13;;;10.30;99.90;;;;;;5091623;28;20031;-77
2022/11/05 07:29:08;;;;;;;4.57;2.30;;;10.30;99.90;;;;;;5094452;28;20020;-78
2022/11/05 07:31:33;;;;;;;9.35;2.85;;;10.30;99.90;;;;;;5093302;28;20024;-77
2022/11/05 07:33:59;;;;;;;5.82;2.00;;;10.30;99.90;;;;;;5098055;28;20081;-77
2022/11/05 07:36:25;;;;;;;3.08;2.13;;;10.30;99.90;;;;;;5082320;28;20036;-78
2022/11/05 07:38:51;;;;;;;3.95;1.80;;;10.20;99.90;;;;;;5112363;28;20489;-77
2022/11/05 07:41:17;;;;;;;5.03;2.10;;;10.20;99.90;;;;;;5078605;28;20060;-78
2022/11/05 07:43:42;;;;;;;4.57;2.00;;;10.20;99.90;;;;;;5106330;28;20023;-76
2022/11/05 07:46:08;;;;;;;2.28;1.65;;;10.20;99.90;;;;;;5098923;28;20031;-77
2022/11/05 07:48:34;;;;;;;2.15;1.55;;;10.30;99.90;;;;;;5081475;28;20024;-78
2022/11/05 07:50:59;;;;;;;3.83;2.00;;;10.20;99.90;;;;;;5082145;28;20487;-78
2022/11/05 07:53:25;;;;;;;3.08;2.00;;;10.30;99.90;;;;;;5090649;28;20115;-78
2022/11/05 07:55:51;;;;;;;5.10;2.17;;;10.30;99.90;;;;;;5089161;28;20031;-78
2022/11/05 07:58:17;;;;;;;3.35;1.88;;;10.30;99.90;;;;;;5083202;28;20097;-78
2022/11/05 08:00:43;;;;;;;3.10;1.52;;;10.30;99.90;;;;;;5112658;28;20468;-78
2022/11/05 08:03:13;;;;;;;3.17;1.65;;;10.30;99.90;;;;;;5096660;28;20024;-78
2022/11/05 08:05:44;;;;;;;2.70;1.60;;;10.30;99.90;;;;;;5087879;28;20032;-77
2022/11/05 08:08:12;;;;;;;2.67;1.63;;;10.30;99.90;;;;;;5110637;28;20023;-78
2022/11/05 08:10:38;;;;;;;3.05;1.67;;;10.40;99.90;;;;;;5081876;28;20032;-78
2022/11/05 08:13:05;;;;;;;5.15;2.45;;;10.30;99.90;;;;;;5093257;28;20072;-78
2022/11/05 08:15:31;;;;;;;2.95;1.98;;;10.30;99.90;;;;;;5086560;28;20028;-78
2022/11/05 08:18:02;;;;;;;3.90;1.80;;;10.30;99.90;;;;;;5085300;28;20035;-78
2022/11/05 08:20:28;;;;;;;4.75;2.00;;;10.40;99.90;;;;;;5094650;28;20396;-77
2022/11/05 08:22:54;;;;;;;5.68;2.85;;;10.40;99.90;;;;;;5088131;28;20495;-78
2022/11/05 08:25:20;;;;;;;3.63;1.90;;;10.30;99.90;;;;;;5097365;28;20529;-78
2022/11/05 08:27:45;;;;;;;3.30;1.90;;;10.40;99.90;;;;;;5115195;28;20016;-77
2022/11/05 08:30:11;;;;;;;4.22;2.05;;;10.40;99.90;;;;;;5091155;28;20108;-75
2022/11/05 08:32:37;;;;;;;4.47;2.17;;;10.40;99.90;;;;;;5088261;28;20098;-78
2022/11/05 08:35:03;;;;;;;5.70;2.35;;;10.30;99.90;;;;;;5097764;28;20016;-80
2022/11/05 08:37:29;;;;;;;5.70;2.40;;;10.40;99.90;;;;;;5088541;28;20465;-76
2022/11/05 08:39:54;;;;;;;5.88;2.80;;;10.50;99.90;;;;;;5104110;28;20046;-77
2022/11/05 08:42:20;;;;;;;4.55;1.80;;;10.60;99.90;;;;;;5078385;28;20043;-76
2022/11/05 08:44:45;;;;;;;4.47;1.95;;;10.50;99.90;;;;;;5093598;28;20161;-77
2022/11/05 08:47:11;;;;;;;2.90;2.22;;;10.60;99.90;;;;;;5095862;28;20023;-76
2022/11/05 08:49:36;;;;;;;14.55;7.15;;;10.60;99.90;;;;;;5095986;28;20094;-76
2022/11/05 08:52:02;;;;;;;8.43;5.60;;;10.50;99.90;;;;;;5095990;28;20068;-80
2022/11/05 08:54:28;;;;;;;6.65;4.07;;;10.60;99.90;;;;;;5097091;28;20034;-76
2022/11/05 08:56:54;;;;;;;5.97;2.63;;;10.60;99.90;;;;;;5092938;28;20104;-79
2022/11/05 08:59:19;;;;;;;3.45;2.13;;;10.70;99.90;;;;;;5095671;28;20414;-80
2022/11/05 09:01:45;;;;;;;3.20;1.75;;;10.70;99.90;;;;;;5100137;28;20158;-78
2022/11/05 09:04:10;;;;;;;4.45;2.00;;;10.80;99.90;;;;;;5091502;28;20051;-77
2022/11/05 09:06:36;;;;;;;3.25;1.55;;;10.80;99.90;;;;;;5081971;28;20487;-78
2022/11/05 09:09:02;;;;;;;3.40;1.70;;;10.80;99.90;;;;;;5098345;28;20214;-82
2022/11/05 09:11:27;;;;;;;2.45;1.50;;;10.90;99.90;;;;;;5097471;28;20023;-83
2022/11/05 09:13:53;;;;;;;4.13;1.90;;;10.90;99.90;;;;;;5095485;28;20048;-80
2022/11/05 09:16:24;;;;;;;3.47;1.58;;;11.00;99.90;;;;;;5096098;28;20106;-83
2022/11/05 09:18:50;;;;;;;5.67;1.83;;;10.90;99.90;;;;;;5096710;28;20023;-79
2022/11/05 09:21:17;;;;;;;5.93;2.30;;;10.90;99.90;;;;;;5091781;28;20284;-78
2022/11/05 09:23:46;;;;;;;3.20;2.13;;;10.90;99.90;;;;;;5087083;28;20076;-80
2022/11/05 09:26:13;;;;;;;4.90;2.70;;;10.90;99.90;;;;;;5095712;28;20024;-79
2022/11/05 09:28:39;;;;;;;4.07;2.35;;;10.90;99.90;;;;;;5094180;28;20357;-81
2022/11/05 09:31:07;;;;;;;3.58;1.80;;;10.90;99.90;;;;;;5092329;28;20051;-81
2022/11/05 09:33:33;;;;;;;3.33;1.90;;;11.00;99.90;;;;;;5086427;28;20118;-83
2022/11/05 09:35:59;;;;;;;3.05;1.50;;;11.10;99.90;;;;;;5097063;28;20039;-81
2022/11/05 09:38:24;;;;;;;3.35;1.60;;;11.00;99.90;;;;;;5097669;28;20073;-81
2022/11/05 09:40:56;;;;;;;3.03;1.73;;;11.00;99.90;;;;;;5080890;28;20030;-80
2022/11/05 09:43:25;;;;;;;;;;;11.00;99.90;;;;;;5095508;28;20058;-79
2022/11/05 09:45:54;;;;;;;4.25;1.80;;;11.00;99.90;;;;;;5114470;28;19907;-79
2022/11/05 09:48:24;;;;;;;3.75;1.50;;;10.90;99.90;;;;;;5096678;28;20465;-79
2022/11/05 09:50:51;;;;;;;3.65;1.30;;;10.90;99.90;;;;;;5080845;28;20119;-79
2022/11/05 09:53:19;;;;;;;3.58;1.67;;;10.90;99.90;;;;;;5094693;28;20528;-80
2022/11/05 09:55:49;;;;;;;4.75;2.45;;;10.90;99.90;;;;;;5093707;28;20023;-84
2022/11/05 09:58:38;;;;;;;3.65;2.00;;;10.90;99.90;;;;;;5082102;28;20048;-79
2022/11/05 10:01:09;;;;;;;9.02;3.65;;;11.10;99.90;;;;;;5112566;28;20094;-79
2022/11/05 10:03:43;;;;;;;5.13;3.03;;;11.10;99.90;;;;;;5076532;28;20031;-80
2022/11/05 10:06:13;;;;;;;4.95;2.50;;;11.10;99.90;;;;;;5075951;28;20040;-79
2022/11/05 10:08:43;;;;;;;2.65;1.63;;;11.20;99.90;;;;;;5112465;28;20106;-83
2022/11/05 10:11:28;;;;;;;2.78;1.50;;;11.20;99.90;;;;;;5078107;28;20031;-84
2022/11/05 10:13:59;;;;;;;3.30;2.00;;;11.20;99.90;;;;;;5104587;28;20023;-80
2022/11/05 10:16:34;;;;;;;5.00;2.28;;;11.30;99.90;;;;;;5096850;28;20152;-81
2022/11/05 10:19:08;;;;;;;3.90;1.83;;;11.30;99.90;;;;;;5109499;28;20020;-80
2022/11/05 10:21:36;;;;;;;2.65;1.80;;;11.20;99.90;;;;;;5078042;28;20040;-82
2022/11/05 10:24:12;;;;;;;2.95;1.50;;;11.20;99.90;;;;;;5076417;28;20076;-80
2022/11/05 10:26:38;;;;;;;3.50;1.80;;;11.30;99.90;;;;;;5110566;28;20031;-81
2022/11/05 10:29:04;;;;;;;4.78;1.45;;;11.40;99.90;;;;;;5113517;28;20122;-82
2022/11/05 10:31:34;;;;;;;4.35;1.65;;;11.40;99.90;;;;;;5096411;28;20116;-81
2022/11/05 10:34:04;;;;;;;4.35;1.55;;;11.50;99.90;;;;;;5114109;28;20030;-80
2022/11/05 10:36:33;;;;;;;3.30;1.40;;;11.60;99.90;;;;;;5095821;28;20031;-82
2022/11/05 10:39:17;;;;;;;2.70;1.80;;;11.70;99.90;;;;;;5075935;28;20114;-83
2022/11/05 10:41:52;;;;;;;5.03;1.92;;;11.80;99.90;;;;;;5086387;28;20477;-81
2022/11/05 10:44:25;;;;;;;3.78;2.05;;;11.90;99.90;;;;;;5080896;28;20021;-82
2022/11/05 10:47:28;;;;;;;4.38;1.52;;;11.90;99.90;;;;;;5093941;28;20025;-82
2022/11/05 10:49:59;;;;;;;5.78;1.60;;;12.00;99.90;;;;;;5083344;28;20386;-78
2022/11/05 10:52:53;;;;;;;3.67;2.22;;;12.00;99.90;;;;;;5077118;28;20024;-79
2022/11/05 10:55:26;;;;;;;3.80;1.95;;;12.10;99.90;;;;;;5070398;28;20028;-80
2022/11/05 10:57:52;;;;;;;3.03;1.67;;;12.20;99.90;;;;;;5075556;28;20069;-81
2022/11/05 11:00:21;;;;;;;3.10;1.55;;;12.20;99.90;;;;;;5085893;28;20031;-79
2022/11/05 11:03:02;;;;;;;4.15;2.00;;;12.20;99.90;;;;;;5094133;28;20028;-83
2022/11/05 11:05:34;;;;;;;5.93;1.63;;;12.10;99.90;;;;;;5088473;28;20027;-81
2022/11/05 11:08:21;;;;;;;2.80;1.65;;;12.10;99.90;;;;;;5084743;28;20196;-81
2022/11/05 11:10:54;;;;;;;3.67;1.90;;;12.10;99.90;;;;;;5110621;28;20038;-80
2022/11/05 11:13:26;;;;;;;2.83;1.60;;;12.00;99.90;;;;;;5075631;28;20149;-79
2022/11/05 11:15:51;;;;;;;;;;;12.00;99.90;;;;;;5097130;28;20134;-80
2022/11/05 11:18:38;;;;;;;4.07;1.92;;;11.90;99.90;;;;;;5108984;28;20008;-79
2022/11/05 11:21:11;;;;;;;2.53;1.40;;;12.00;99.90;;;;;;5077437;28;20151;-82
2022/11/05 11:23:39;;;;;;;3.42;1.63;;;11.90;99.90;;;;;;5093286;28;20024;-80
2022/11/05 11:26:05;;;;;;;5.35;1.70;;;12.10;99.90;;;;;;5113314;28;20027;-77
2022/11/05 11:28:34;;;;;;;4.30;1.85;;;12.20;99.90;;;;;;5089864;28;20027;-78
2022/11/05 11:31:09;;;;;;;6.43;2.25;;;12.30;99.90;;;;;;5085745;28;20578;-79
2022/11/05 11:33:36;;;;;;;5.65;2.13;;;12.30;99.90;;;;;;5082039;28;20035;-81
2022/11/05 11:36:03;;;;;;;6.82;2.20;;;12.30;99.90;;;;;;5093037;28;20031;-81
2022/11/05 11:38:31;;;;;;;3.90;2.25;;;12.30;99.90;;;;;;5077037;28;20078;-82
2022/11/05 11:41:16;;;;;;;5.50;2.42;;;12.30;99.90;;;;;;5071797;28;20126;-79
2022/11/05 11:43:43;;;;;;;4.30;2.17;;;12.30;99.90;;;;;;5083109;28;20028;-82
2022/11/05 11:46:18;;;;;;;4.13;2.15;;;12.50;99.90;;;;;;5091891;28;20060;-81
2022/11/05 11:48:48;;;;;;;5.55;2.40;;;12.70;99.90;;;;;;5089611;28;20024;-85
2022/11/05 11:51:43;;;;;;;7.70;3.22;;;12.80;99.90;;;;;;5077201;28;20085;-81
2022/11/05 11:54:20;;;;;;;4.53;1.88;;;12.90;99.90;;;;;;5090900;28;20028;-82
2022/11/05 11:56:47;;;;;;;4.57;2.20;;;13.30;99.90;;;;;;5088878;28;20047;-81
2022/11/05 11:59:25;;;;;;;4.68;2.17;;;13.10;99.90;;;;;;5072224;28;20186;-81
2022/11/05 12:02:29;;;;;;;6.25;2.35;;;12.90;99.90;;;;;;5090879;28;20032;-82
2022/11/05 12:05:14;;;;;;;5.93;2.30;;;12.70;99.90;;;;;;5019858;28;20034;-78
2022/11/05 12:07:56;;;;;;;2.65;1.50;;;12.50;99.90;;;;;;5072266;28;20071;-78
2022/11/05 12:10:27;;;;;;;4.88;1.70;;;12.30;99.90;;;;;;5072454;28;20036;-76
2022/11/05 12:13:10;;;;;;;8.18;1.70;;;12.20;99.90;;;;;;5074171;28;20062;-78
2022/11/05 12:15:53;;;;;;;4.45;1.77;;;12.10;99.90;;;;;;5091607;28;20021;-74
2022/11/05 12:18:40;;;;;;;48.35;23.38;;;12.60;99.90;;;;;;5091279;28;20422;-76
2022/11/05 12:21:33;;;;;;;9.02;4.90;;;13.30;99.90;;;;;;5091600;28;20086;-75
2022/11/05 12:24:20;;;;;;;6.32;2.80;;;13.80;99.90;;;;;;5088845;28;20427;-83
2022/11/05 12:26:54;;;;;;;5.95;2.00;;;14.10;99.90;;;;;;5091727;28;20028;-82
2022/11/05 12:29:38;;;;;;;3.15;2.05;;;13.80;99.90;;;;;;5079455;28;20048;-80
2022/11/05 12:32:38;;;;;;;5.45;1.98;;;13.50;99.90;;;;;;5086874;28;20016;-82
2022/11/05 12:35:22;;;;;;;4.00;1.77;;;13.30;99.90;;;;;;5077383;28;20020;-80
2022/11/05 12:38:26;;;;;;;4.53;2.00;;;13.10;99.90;;;;;;5093640;28;20078;-79
2022/11/05 12:41:25;;;;;;;4.88;1.63;;;13.00;99.90;;;;;;5094961;28;20377;-80
2022/11/05 12:44:13;;;;;;;2.95;1.45;;;12.80;99.90;;;;;;5094798;28;20067;-84
2022/11/05 12:47:03;;;;;;;6.45;1.60;;;12.80;99.90;;;;;;5094719;28;20023;-82
2022/11/05 12:49:50;;;;;;;3.42;1.35;;;12.70;99.90;;;;;;5082620;28;20074;-81
2022/11/05 12:52:41;;;;;;;3.30;1.35;;;12.70;99.90;;;;;;5093586;28;20020;-75
2022/11/05 12:55:18;;;;;;;3.28;0.82;;;12.70;99.90;;;;;;5079206;28;20506;-75
2022/11/05 12:57:46;;;;;;;2.75;1.20;;;12.60;99.90;;;;;;5092210;28;20024;-76
2022/11/05 13:00:23;;;;;;;3.08;1.00;;;12.60;99.90;;;;;;5092408;28;20032;-76
2022/11/05 13:03:10;;;;;;;2.25;0.95;;;12.50;99.90;;;;;;5091221;28;21430;-77
2022/11/05 13:05:51;;;;;;;5.70;1.20;;;12.40;99.90;;;;;;5087197;28;20040;-77
2022/11/05 13:09:04;;;;;;;4.10;1.30;;;12.40;99.90;;;;;;5094007;28;20031;-77
2022/11/05 13:11:43;;;;;;;4.53;1.50;;;12.30;99.90;;;;;;5054167;28;20047;-77
2022/11/05 13:14:47;;;;;;;5.53;2.08;;;12.20;99.90;;;;;;5092114;28;20024;-77
2022/11/05 13:17:14;;;;;;;4.55;1.85;;;12.20;99.90;;;;;;5033353;28;20025;-83
2022/11/05 13:20:17;;;;;;;3.50;1.85;;;12.20;99.90;;;;;;5080421;28;20573;-83
2022/11/05 13:23:09;;;;;;;6.43;2.15;;;12.20;99.90;;;;;;5093910;28;20122;-79
2022/11/05 13:25:40;;;;;;;4.67;2.00;;;12.30;99.90;;;;;;5093935;28;20024;-81
2022/11/05 13:28:24;;;;;;;7.40;1.70;;;12.30;99.90;;;;;;5092195;28;20725;-79
2022/11/05 13:30:53;;;;;;;4.20;2.10;;;12.20;99.90;;;;;;5092648;28;20201;-76
2022/11/05 13:33:27;;;;;;;5.95;2.53;;;12.20;99.90;;;;;;5093524;28;20032;-79
2022/11/05 13:38:58;;;;;;;3.78;2.03;;;12.30;99.90;;;;;;5092182;28;20039;-77
2022/11/05 13:41:30;;;;;;;4.50;2.60;;;12.20;99.90;;;;;;5091891;28;20039;-76
2022/11/05 13:44:09;;;;;;;5.43;2.10;;;12.20;99.90;;;;;;5090966;28;20032;-76
2022/11/05 13:47:09;;;;;;;5.72;2.38;;;12.20;99.90;;;;;;5093066;28;20028;-76
2022/11/05 13:50:31;;;;;;;5.13;2.00;;;12.30;99.90;;;;;;5081019;28;20028;-76
2022/11/05 13:53:06;;;;;;;2.42;1.67;;;12.30;99.90;;;;;;5010402;28;20069;-76
2022/11/05 13:55:54;;;;;;;4.30;2.00;;;12.20;99.90;;;;;;5001870;28;20041;-76